Pagrindinis puslapis
METAR-TAF:

METAR-TAF

Oro uostai :

Tajuanas, Kinija

platuma: 37-47N, ilguma: 112-33E, Aukštis: 779 m

Dabartinis oras

Ataskaita buvo paskelbta 42 minutes, ne 05:00 UTC
Vėjas 17 kt iš Vakarų/Šiaurės Vakarų su gūsio iki 27 kt
Temperatūra 8°C
Drėgmė 12%
Slėgis 1027 hPa
Matomumas 10 km arba daugiau
nėra debesų žemiau 1500 m ir nėra kamuolinių lietaus debesų

METAR: ZBYN 130500Z 30009G14MPS CAVOK 08/M20 Q1027 NOSIG

Laikas: 13:42 (05:42 UTC)

Prognozė

Ataskaita buvo paskelbta 10 valandos ir 39 minutes, ne 19:03 UTC
Prognozė galioja nuo 13 metu 00 UTC su 13 metu 24 UTC
Vėjas 16 kt iš Šiaurės Vakarų su gūsio iki 29 kt
Matomumas: 6000 m

TAF: ZBYN 121903Z 1300/1324 32008G15MPS 6000 NSC TX06/1307Z TNM05/22Z

Orai ataskaitas ir orų prognozės (METAR, TAF).

turimą stotys yra geltonos ir raudonos taškus žemėlapyje.

Perkelti pele per norėdami pamatyti stoties vardą.

Tada spustelėkite, norėdami matyti oro stebėjimo ir prognozės.

Norėdami pakeisti žemėlapį: spustelėkite ant žalios mygtukų su juodo kryžiaus žemyn,; žalią mygtuką su brūkšneliu, jei norite nutolinti; arba žalių rodyklių gretimoms žemėlapius.


METAR-TAF: